Terminal Aerodrome Forecast
Issued by NWS Amarillo, TX

Home | Current Version | Previous Version | Text Only | Print | Product List | Glossary On
Versions: 1 2 3 4 5 6 7 8 9 10 11 12 13 14 15 16 17 18
894
FTUS44 KAMA 251747
TAFGUY
TAF
KGUY 251747Z 2518/2618 07009KT P6SM SCT045
     FM260000 07008KT P6SM VCTS SCT040CB BKN300
     FM260400 07007KT P6SM SCT050 BKN300
     FM261400 11008KT P6SM SCT100=

USA.gov is the U.S. government's official web portal to all federal, state and local government web resources and services.